Time;durP1;ratioP1;P1;durP2;ratioP2;P2;SDS_P1;SDS_P2;PMS_P1;PMS_P2;Temp;Humidity;BMP_temperature;BMP_pressure;BME280_temperature;BME280_humidity;BME280_pressure;Samples;Min_cycle;Max_cycle;Signal;HPM_P1;HPM_P2
2024/03/18 00:00:37;;;;;;;0.88;0.73;;;;;;;0.58;100.00;101733.66;4899626;29;20222;-71
2024/03/18 00:03:05;;;;;;;1.92;1.15;;;;;;;0.64;100.00;101736.69;4892292;29;20261;-70
2024/03/18 00:05:33;;;;;;;0.88;0.73;;;;;;;0.63;100.00;101732.31;4901538;29;20232;-72
2024/03/18 00:08:01;;;;;;;1.90;1.80;;;;;;;0.55;100.00;101726.75;4902511;29;20217;-71
2024/03/18 00:10:29;;;;;;;0.88;0.68;;;;;;;0.57;100.00;101729.31;4901626;29;20350;-72
2024/03/18 00:12:57;;;;;;;1.98;0.80;;;;;;;0.62;100.00;101722.66;4900569;29;20213;-71
2024/03/18 00:15:26;;;;;;;0.90;0.73;;;;;;;0.54;100.00;101729.53;4899645;29;20199;-72
2024/03/18 00:17:54;;;;;;;1.13;1.02;;;;;;;0.61;100.00;101730.75;4899483;29;20190;-72
2024/03/18 00:20:22;;;;;;;0.80;0.50;;;;;;;0.62;99.39;101721.81;4902191;29;20227;-71
2024/03/18 00:22:50;;;;;;;1.83;1.23;;;;;;;0.61;99.49;101718.28;4902281;29;20181;-71
2024/03/18 00:25:18;;;;;;;2.47;1.33;;;;;;;0.67;99.25;101717.84;4902213;29;20210;-71
2024/03/18 00:27:45;;;;;;;1.65;0.80;;;;;;;0.62;98.73;101724.47;4896178;29;20195;-71
2024/03/18 00:30:14;;;;;;;0.80;0.50;;;;;;;0.55;98.13;101717.91;4902298;29;20253;-72
2024/03/18 00:32:44;;;;;;;0.80;0.50;;;;;;;0.52;97.97;101719.00;4902352;29;20197;-72
2024/03/18 00:35:13;;;;;;;8.88;2.30;;;;;;;0.64;97.12;101719.84;4896692;29;20191;-71
2024/03/18 00:37:41;;;;;;;3.42;0.80;;;;;;;0.60;96.76;101718.41;4899183;29;20727;-71
2024/03/18 00:40:10;;;;;;;1.20;0.82;;;;;;;0.56;96.31;101719.63;4891222;29;20569;-72
2024/03/18 00:42:37;;;;;;;0.95;0.85;;;;;;;0.49;96.39;101711.22;4901325;29;20624;-71
2024/03/18 00:45:06;;;;;;;1.73;1.52;;;;;;;0.48;96.63;101708.72;4902397;29;20672;-72
2024/03/18 00:47:35;;;;;;;0.80;0.60;;;;;;;0.46;96.15;101705.31;4902397;29;20219;-72
2024/03/18 00:50:05;;;;;;;0.80;0.50;;;;;;;0.36;96.36;101705.16;4889308;29;20791;-72
2024/03/18 00:52:33;;;;;;;4.35;1.65;;;;;;;0.48;96.58;101700.72;4898963;29;20714;-72
2024/03/18 00:55:02;;;;;;;0.80;0.50;;;;;;;0.52;96.27;101713.69;4903985;29;20205;-73
2024/03/18 00:57:30;;;;;;;1.85;1.45;;;;;;;0.31;96.65;101713.50;4892658;29;20201;-72
2024/03/18 00:59:57;;;;;;;0.80;0.55;;;;;;;0.39;96.41;101713.75;4902006;29;20221;-72
2024/03/18 01:02:25;;;;;;;1.00;0.90;;;;;;;0.54;95.33;101708.22;4900029;29;20194;-71
2024/03/18 01:04:53;;;;;;;3.17;1.10;;;;;;;0.51;95.19;101708.47;4901432;29;20244;-72
2024/03/18 01:07:22;;;;;;;5.97;2.25;;;;;;;0.45;95.33;101709.78;4901692;29;20740;-72
2024/03/18 01:09:50;;;;;;;0.80;0.65;;;;;;;0.39;95.33;101716.41;4880553;29;20235;-71
2024/03/18 01:12:18;;;;;;;0.85;0.68;;;;;;;0.40;95.49;101706.59;4898547;29;20202;-71
2024/03/18 01:14:46;;;;;;;1.90;1.50;;;;;;;0.38;95.44;101708.56;4891670;29;20229;-72
2024/03/18 01:17:14;;;;;;;3.10;2.00;;;;;;;0.42;95.07;101702.03;4897173;29;20727;-71
2024/03/18 01:19:42;;;;;;;1.75;1.52;;;;;;;0.39;95.60;101697.78;4893284;29;20255;-72
2024/03/18 01:22:10;;;;;;;2.25;2.15;;;;;;;0.39;96.22;101711.09;4905105;29;20185;-73
2024/03/18 01:24:39;;;;;;;3.40;2.67;;;;;;;0.40;95.18;101702.13;4902058;29;20201;-71
2024/03/18 01:27:06;;;;;;;2.60;2.00;;;;;;;0.33;95.44;101690.28;4902166;29;20194;-72
2024/03/18 01:29:34;;;;;;;1.00;0.70;;;;;;;0.43;95.50;101685.09;4891805;29;20241;-72
2024/03/18 01:32:02;;;;;;;1.42;1.17;;;;;;;0.36;95.44;101695.34;4896233;29;20194;-73
2024/03/18 01:34:30;;;;;;;1.75;1.55;;;;;;;0.32;95.46;101696.56;4896068;29;20198;-71
2024/03/18 01:36:58;;;;;;;0.80;0.50;;;;;;;0.10;96.01;101693.81;4885379;29;20229;-72
2024/03/18 01:39:26;;;;;;;0.98;0.73;;;;;;;0.12;97.28;101699.03;4889546;29;20211;-70
2024/03/18 01:41:55;;;;;;;2.10;1.10;;;;;;;0.18;96.96;101695.91;4898012;29;20198;-72
2024/03/18 01:44:23;;;;;;;0.90;0.80;;;;;;;0.28;95.90;101692.44;4903921;29;20667;-72
2024/03/18 01:46:50;;;;;;;0.80;0.60;;;;;;;0.16;95.75;101690.69;4900415;29;20194;-71
2024/03/18 01:49:18;;;;;;;1.27;0.98;;;;;;;0.25;96.72;101690.00;4999470;23;20233;-72
2024/03/18 01:51:46;;;;;;;7.55;1.65;;;;;;;0.08;96.62;101685.09;4940176;29;20196;-71
2024/03/18 01:54:14;;;;;;;7.82;2.70;;;;;;;0.26;96.76;101683.69;4922195;29;20190;-73
2024/03/18 01:56:42;;;;;;;0.90;0.70;;;;;;;0.13;96.42;101682.94;4917466;29;20247;-71
2024/03/18 01:59:11;;;;;;;1.38;1.02;;;;;;;0.17;96.19;101683.56;4907499;29;20313;-72
2024/03/18 02:01:39;;;;;;;1.05;0.80;;;;;;;0.02;97.70;101679.38;4897803;29;20278;-70
2024/03/18 02:04:11;;;;;;;0.90;0.80;;;;;;;-0.03;98.06;101682.41;4896009;29;20242;-74
2024/03/18 02:06:41;;;;;;;1.90;1.70;;;;;;;0.06;98.09;101680.84;4892853;29;20202;-70
2024/03/18 02:09:09;;;;;;;2.75;2.13;;;;;;;0.03;97.27;101671.28;4897145;29;20228;-72
2024/03/18 02:11:37;;;;;;;1.80;1.27;;;;;;;0.08;98.14;101669.13;4888317;29;20199;-71
2024/03/18 02:14:13;;;;;;;1.52;1.42;;;;;;;0.02;97.61;101668.75;4896319;29;20198;-71
2024/03/18 02:16:41;;;;;;;1.00;0.80;;;;;;;0.13;97.62;101661.66;4897163;29;20194;-71
2024/03/18 02:19:10;;;;;;;0.80;0.50;;;;;;;0.13;97.99;101656.34;4890731;29;20202;-72
2024/03/18 02:21:38;;;;;;;0.90;0.70;;;;;;;0.11;97.72;101652.94;4895669;29;20198;-71
2024/03/18 02:24:07;;;;;;;1.88;1.58;;;;;;;0.17;97.11;101644.47;4897209;29;20202;-72
2024/03/18 02:26:35;;;;;;;0.80;0.50;;;;;;;0.07;96.94;101645.28;4904807;29;20186;-70
2024/03/18 02:29:04;;;;;;;1.48;0.70;;;;;;;0.07;97.11;101646.16;4890364;29;20225;-71
2024/03/18 02:31:32;;;;;;;0.80;0.50;;;;;;;-0.05;97.69;101642.59;4892836;29;20214;-73
2024/03/18 02:34:00;;;;;;;0.93;0.80;;;;;;;-0.16;98.09;101639.06;4898862;29;20198;-72
2024/03/18 02:36:28;;;;;;;1.48;0.82;;;;;;;-0.05;98.30;101636.44;4892725;29;20202;-71
2024/03/18 02:38:56;;;;;;;3.45;0.85;;;;;;;-0.10;98.50;101649.25;4886562;29;20186;-73
2024/03/18 02:41:25;;;;;;;0.80;0.65;;;;;;;-0.10;98.71;101639.41;4895404;29;20568;-72
2024/03/18 02:43:53;;;;;;;4.43;2.17;;;;;;;-0.13;98.97;101639.66;4895743;29;20521;-72
2024/03/18 02:46:21;;;;;;;2.03;1.80;;;;;;;-0.12;98.49;101637.84;4895227;29;20723;-71
2024/03/18 02:48:49;;;;;;;1.33;0.88;;;;;;;-0.11;98.73;101636.91;4896010;29;20277;-72
2024/03/18 02:51:17;;;;;;;0.90;0.65;;;;;;;-0.24;99.56;101625.50;4900938;29;20682;-72
2024/03/18 02:53:45;;;;;;;0.93;0.82;;;;;;;-0.19;99.10;101617.97;4889057;29;20202;-74
2024/03/18 02:56:13;;;;;;;0.90;0.70;;;;;;;-0.27;98.74;101609.75;4903417;29;20194;-72
2024/03/18 02:58:43;;;;;;;1.27;1.00;;;;;;;-0.32;98.86;101607.44;4897427;29;20201;-72
2024/03/18 03:01:11;;;;;;;1.20;0.73;;;;;;;-0.43;99.38;101602.91;4895971;29;20608;-72
2024/03/18 03:03:39;;;;;;;0.80;0.60;;;;;;;-0.38;99.70;101596.38;4896436;29;20186;-71
2024/03/18 03:06:08;;;;;;;4.50;1.15;;;;;;;-0.40;99.21;101595.69;4897128;29;20194;-71
2024/03/18 03:08:36;;;;;;;0.80;0.50;;;;;;;-0.34;99.69;101592.56;4897782;29;20281;-70
2024/03/18 03:11:06;;;;;;;1.20;1.10;;;;;;;-0.32;99.15;101596.78;4893021;29;20229;-72
2024/03/18 03:13:34;;;;;;;1.25;1.10;;;;;;;-0.34;99.08;101597.88;4890148;29;20262;-70
2024/03/18 03:16:03;;;;;;;0.80;0.50;;;;;;;-0.35;99.08;101596.19;4894399;29;20258;-71
2024/03/18 03:18:31;;;;;;;1.08;0.93;;;;;;;-0.45;99.72;101602.19;4897627;29;20266;-72
2024/03/18 03:20:59;;;;;;;1.52;1.42;;;;;;;-0.41;99.45;101597.47;4896258;29;20210;-72
2024/03/18 03:23:27;;;;;;;0.90;0.70;;;;;;;-0.46;99.25;101595.16;4880350;29;20586;-72
2024/03/18 03:25:55;;;;;;;0.80;0.70;;;;;;;-0.38;99.39;101596.38;4896501;29;20283;-71
2024/03/18 03:28:23;;;;;;;1.67;1.58;;;;;;;-0.37;99.12;101600.75;4896590;29;20675;-72
2024/03/18 03:31:03;;;;;;;1.10;0.82;;;;;;;-0.24;99.82;101602.38;4883509;29;20257;-70
2024/03/18 03:33:31;;;;;;;0.90;0.57;;;;;;;-0.31;99.18;101602.97;4896291;29;20211;-73
2024/03/18 03:35:59;;;;;;;0.85;0.60;;;;;;;-0.52;99.32;101600.94;4887410;29;20199;-70
2024/03/18 03:38:28;;;;;;;0.80;0.60;;;;;;;-0.51;99.87;101602.63;4889023;29;20191;-70
2024/03/18 03:40:56;;;;;;;1.15;1.05;;;;;;;-0.51;99.42;101602.63;4895670;29;20240;-72
2024/03/18 03:43:24;;;;;;;0.80;0.50;;;;;;;-0.31;98.44;101605.63;4889242;29;20288;-71
2024/03/18 03:45:55;;;;;;;0.80;0.70;;;;;;;-0.38;98.15;101607.03;4897807;29;20205;-70
2024/03/18 03:48:26;;;;;;;1.02;0.80;;;;;;;-0.40;98.51;101608.97;4894337;29;20674;-71
2024/03/18 03:50:55;;;;;;;1.00;0.70;;;;;;;-0.49;99.40;101606.03;4885632;29;20221;-69
2024/03/18 03:53:25;;;;;;;0.98;0.82;;;;;;;-0.51;99.08;101599.97;4883976;29;20711;-71
2024/03/18 03:55:55;;;;;;;4.50;1.00;;;;;;;-0.38;98.06;101601.72;4894739;29;20198;-70
2024/03/18 03:58:25;;;;;;;1.15;1.05;;;;;;;-0.36;97.81;101597.13;4893413;29;20254;-72
2024/03/18 04:00:53;;;;;;;0.90;0.70;;;;;;;-0.47;98.92;101598.78;4896373;29;20240;-70
2024/03/18 04:03:23;;;;;;;0.80;0.50;;;;;;;-0.53;98.42;101595.72;4899318;29;20222;-71
2024/03/18 04:05:54;;;;;;;1.00;0.88;;;;;;;-0.49;98.84;101595.41;4901581;29;20802;-71
2024/03/18 04:08:22;;;;;;;0.80;0.60;;;;;;;-0.57;98.78;101592.44;4899675;29;20190;-72
2024/03/18 04:10:50;;;;;;;0.80;0.60;;;;;;;-0.52;98.67;101592.09;4890221;29;20221;-71
2024/03/18 04:13:19;;;;;;;1.00;0.70;;;;;;;-0.50;98.40;101591.03;4878674;29;20226;-71
2024/03/18 04:15:48;;;;;;;0.80;0.52;;;;;;;-0.56;98.39;101588.84;4898821;29;20194;-71
2024/03/18 04:18:17;;;;;;;1.60;0.95;;;;;;;-0.54;98.11;101591.38;4899621;29;20242;-73
2024/03/18 04:20:45;;;;;;;1.10;1.00;;;;;;;-0.55;98.41;101584.38;4902389;29;20221;-71
2024/03/18 04:23:15;;;;;;;0.80;0.60;;;;;;;-0.54;98.36;101591.38;4893461;29;20195;-72
2024/03/18 04:25:43;;;;;;;0.93;0.60;;;;;;;-0.46;98.09;101592.50;4891406;29;20301;-70
2024/03/18 04:28:11;;;;;;;1.17;1.08;;;;;;;-0.51;97.54;101586.69;4899443;29;20202;-71
2024/03/18 04:39:46;;;;;;;1.17;0.68;;;;;;;-0.57;97.31;101583.63;4901669;29;20792;-72
2024/03/18 04:42:14;;;;;;;0.80;0.50;;;;;;;-0.64;97.22;101585.91;4883690;29;20652;-70
2024/03/18 04:44:42;;;;;;;0.80;0.63;;;;;;;-0.67;97.44;101583.47;4883130;29;20610;-70
2024/03/18 04:47:10;;;;;;;1.60;0.70;;;;;;;-0.63;97.53;101586.75;4883370;29;20280;-70
2024/03/18 04:49:38;;;;;;;0.90;0.77;;;;;;;-0.69;97.85;101587.19;4890208;29;20361;-70
2024/03/18 04:52:06;;;;;;;0.80;0.50;;;;;;;-0.65;98.18;101586.88;4880455;29;20574;-71
2024/03/18 04:54:35;;;;;;;0.80;0.60;;;;;;;-0.69;98.40;101588.06;4883336;29;20227;-70
2024/03/18 04:57:04;;;;;;;0.80;0.50;;;;;;;-0.70;97.92;101583.69;4883215;29;20195;-70
2024/03/18 05:00:31;;;;;;;0.80;0.65;;;;;;;-0.68;98.31;101584.44;4883079;29;20277;-72
2024/03/18 05:03:00;;;;;;;0.85;0.73;;;;;;;-0.71;98.38;101589.97;4882835;29;20317;-71
2024/03/18 05:05:28;;;;;;;0.80;0.50;;;;;;;-0.72;98.40;101587.41;4884291;29;20259;-70
2024/03/18 05:07:57;;;;;;;0.90;0.80;;;;;;;-0.78;98.78;101587.88;4883356;29;20335;-72
2024/03/18 05:10:26;;;;;;;1.48;1.13;;;;;;;-0.73;98.71;101575.97;4887674;29;20214;-70
2024/03/18 05:12:59;;;;;;;1.10;0.70;;;;;;;-0.64;98.10;101585.91;4882018;29;20198;-71
2024/03/18 05:15:27;;;;;;;3.13;1.40;;;;;;;-0.77;98.23;101587.75;4882824;29;20196;-69
2024/03/18 05:17:56;;;;;;;1.08;0.98;;;;;;;-0.70;98.79;101586.34;4867336;29;20194;-71
2024/03/18 05:20:24;;;;;;;1.15;0.70;;;;;;;-0.77;98.33;101590.41;4887406;29;20233;-73
2024/03/18 05:22:52;;;;;;;0.80;0.70;;;;;;;-0.72;99.07;101590.06;4873850;29;20201;-72
2024/03/18 05:25:19;;;;;;;0.80;0.70;;;;;;;-0.54;97.63;101596.72;4887368;29;20702;-72
2024/03/18 05:27:47;;;;;;;0.80;0.60;;;;;;;-0.62;98.10;101593.75;4886250;29;20205;-70
2024/03/18 05:30:17;;;;;;;0.80;0.50;;;;;;;-0.67;98.23;101596.75;4878733;29;20227;-72
2024/03/18 05:32:45;;;;;;;0.93;0.73;;;;;;;-0.53;97.75;101601.03;4883087;29;20194;-73
2024/03/18 05:35:13;;;;;;;0.80;0.60;;;;;;;-0.48;96.67;101597.06;4882948;29;20194;-72
2024/03/18 05:37:41;;;;;;;1.35;0.70;;;;;;;-0.48;96.60;101602.41;4874644;29;20439;-73
2024/03/18 05:40:10;;;;;;;0.90;0.77;;;;;;;-0.47;96.43;101597.94;4876910;29;20213;-73
2024/03/18 05:42:38;;;;;;;0.80;0.50;;;;;;;-0.50;96.75;101599.03;4880044;29;20190;-72
2024/03/18 05:45:07;;;;;;;0.85;0.65;;;;;;;-0.31;96.18;101602.97;4882675;29;20198;-73
2024/03/18 05:47:37;;;;;;;0.80;0.50;;;;;;;-0.26;95.57;101604.31;4885811;29;20667;-73
2024/03/18 05:50:09;;;;;;;0.80;0.50;;;;;;;-0.21;95.15;101596.00;4886101;29;20206;-72
2024/03/18 05:52:37;;;;;;;0.80;0.60;;;;;;;-0.05;94.61;101585.88;4886053;29;20195;-72
2024/03/18 05:55:06;;;;;;;0.90;0.60;;;;;;;0.01;94.55;101582.72;4884216;29;20194;-72
2024/03/18 05:57:34;;;;;;;0.80;0.50;;;;;;;0.07;94.13;101592.91;4883826;29;20233;-72
2024/03/18 06:00:04;;;;;;;0.90;0.73;;;;;;;0.14;93.62;101594.16;4887106;29;20217;-71
2024/03/18 06:02:40;;;;;;;0.80;0.50;;;;;;;0.25;93.00;101594.16;4877569;29;20276;-70
2024/03/18 06:05:09;;;;;;;1.95;1.50;;;;;;;0.32;92.38;101592.72;4884067;29;20194;-71
2024/03/18 06:07:37;;;;;;;0.85;0.55;;;;;;;0.38;91.83;101591.41;4882792;29;20194;-72
2024/03/18 06:10:05;;;;;;;0.80;0.50;;;;;;;0.34;91.20;101590.78;4890899;29;20243;-70
2024/03/18 06:12:33;;;;;;;1.00;0.90;;;;;;;0.35;92.52;101592.47;4883005;29;20554;-73
2024/03/18 06:15:01;;;;;;;1.00;0.60;;;;;;;0.53;90.82;101600.00;4882741;29;20203;-72
2024/03/18 06:17:29;;;;;;;0.80;0.70;;;;;;;0.58;90.52;101592.50;4883183;29;20667;-72
2024/03/18 06:19:59;;;;;;;0.80;0.50;;;;;;;0.71;89.86;101585.22;4881696;29;20500;-71
2024/03/18 06:22:32;;;;;;;1.63;0.90;;;;;;;0.74;89.44;101591.16;4880934;29;20190;-71
2024/03/18 06:27:46;;;;;;;0.80;0.50;;;;;;;1.11;88.39;101594.41;4877121;29;20191;-70
2024/03/18 06:30:15;;;;;;;0.80;0.60;;;;;;;1.14;86.62;101599.47;4875397;29;20249;-69
2024/03/18 06:32:43;;;;;;;0.80;0.50;;;;;;;1.17;86.76;101591.22;4861655;29;20603;-70
2024/03/18 06:35:13;;;;;;;1.45;0.80;;;;;;;1.33;86.22;101597.97;4881435;29;20194;-70
2024/03/18 06:37:40;;;;;;;1.25;1.15;;;;;;;1.33;84.56;101595.28;4880333;29;20206;-71
2024/03/18 06:40:11;;;;;;;0.80;0.50;;;;;;;1.46;84.48;101595.97;4880427;29;20767;-72
2024/03/18 06:42:40;;;;;;;1.08;0.60;;;;;;;1.57;83.43;101603.94;4881760;29;20386;-73
2024/03/18 06:45:09;;;;;;;2.88;0.70;;;;;;;1.59;83.67;101607.34;4881797;29;20193;-73
2024/03/18 06:48:32;;;;;;;1.05;0.85;;;;;;;1.63;82.34;101601.63;4883587;29;20562;-73
2024/03/18 06:51:01;;;;;;;0.80;0.70;;;;;;;1.83;81.67;101599.97;4881092;29;20224;-71
2024/03/18 06:53:29;;;;;;;1.80;1.60;;;;;;;2.05;80.94;101599.00;4862578;29;20211;-71
2024/03/18 06:56:00;;;;;;;1.13;0.95;;;;;;;2.27;80.24;101603.38;4886601;29;20204;-70
2024/03/18 06:58:28;;;;;;;0.90;0.70;;;;;;;2.23;79.46;101593.94;4883196;29;20208;-69
2024/03/18 07:00:56;;;;;;;1.40;0.70;;;;;;;2.24;79.21;101591.09;4880425;29;20690;-70
2024/03/18 07:03:24;;;;;;;0.90;0.80;;;;;;;2.42;77.82;101589.50;4877634;29;20198;-72
2024/03/18 07:05:51;;;;;;;2.15;0.75;;;;;;;2.29;77.23;101590.69;4881500;29;20203;-72
2024/03/18 07:08:21;;;;;;;1.23;0.70;;;;;;;2.39;77.30;101591.59;4866735;29;20203;-72
2024/03/18 07:10:49;;;;;;;0.90;0.70;;;;;;;2.43;76.54;101595.69;4894446;29;20224;-70
2024/03/18 07:13:17;;;;;;;0.80;0.50;;;;;;;2.47;75.70;101591.81;4882418;29;20230;-72
2024/03/18 07:15:44;;;;;;;1.20;0.80;;;;;;;2.70;75.36;101593.31;4880421;29;20198;-72
2024/03/18 07:18:12;;;;;;;0.90;0.60;;;;;;;2.86;74.45;101590.97;4880145;29;20212;-70
2024/03/18 07:20:40;;;;;;;1.38;1.23;;;;;;;2.89;73.26;101590.72;4887832;29;20265;-70
2024/03/18 07:23:11;;;;;;;1.10;0.70;;;;;;;2.84;72.64;101586.75;4882481;29;20194;-69
2024/03/18 07:25:41;;;;;;;1.10;0.65;;;;;;;2.72;71.86;101588.66;4882043;29;20312;-69
2024/03/18 07:28:08;;;;;;;1.92;0.70;;;;;;;2.60;72.35;101585.25;4880841;29;20186;-70
2024/03/18 07:30:37;;;;;;;0.80;0.50;;;;;;;2.67;72.63;101590.91;4877706;29;20234;-70
2024/03/18 07:33:06;;;;;;;0.80;0.50;;;;;;;2.80;72.15;101588.88;4878296;29;20670;-70
2024/03/18 07:35:35;;;;;;;1.08;0.88;;;;;;;2.99;70.59;101590.75;4865489;29;20369;-69
2024/03/18 07:38:03;;;;;;;1.35;0.80;;;;;;;3.15;69.52;101583.03;4865587;29;20338;-70
2024/03/18 07:40:32;;;;;;;0.88;0.75;;;;;;;3.06;68.61;101587.38;4877996;29;20248;-70
2024/03/18 07:43:01;;;;;;;0.90;0.75;;;;;;;3.24;68.43;101576.88;4884605;29;20206;-69
2024/03/18 07:45:30;;;;;;;0.80;0.50;;;;;;;3.24;67.09;101578.72;4880920;29;20285;-70
2024/03/18 07:48:04;;;;;;;0.80;0.60;;;;;;;3.21;66.81;101570.94;4884570;29;20194;-69
2024/03/18 07:50:34;;;;;;;1.98;0.88;;;;;;;3.20;65.49;101577.25;4887796;29;20608;-69
2024/03/18 07:53:02;;;;;;;0.90;0.50;;;;;;;3.25;65.36;101583.91;4895162;29;20237;-68
2024/03/18 07:55:30;;;;;;;0.80;0.60;;;;;;;3.20;64.73;101577.25;4888355;29;20201;-69
2024/03/18 07:57:58;;;;;;;0.90;0.60;;;;;;;3.22;63.77;101575.31;4896697;29;20217;-72
2024/03/18 08:00:27;;;;;;;0.90;0.70;;;;;;;3.27;63.85;101568.56;4885205;29;20231;-68
2024/03/18 08:02:55;;;;;;;0.90;0.70;;;;;;;3.52;62.66;101575.22;4892561;29;20627;-69
2024/03/18 08:05:23;;;;;;;0.80;0.50;;;;;;;3.75;61.69;101571.25;4882056;29;20190;-70
2024/03/18 08:07:53;;;;;;;0.80;0.50;;;;;;;3.75;61.46;101567.75;4876792;29;20715;-69
2024/03/18 08:10:21;;;;;;;0.80;0.57;;;;;;;3.65;60.97;101567.75;4889670;29;20221;-69
2024/03/18 08:12:49;;;;;;;1.35;0.93;;;;;;;3.55;60.90;101571.41;4885925;29;20197;-71
2024/03/18 08:15:17;;;;;;;0.82;0.55;;;;;;;3.64;61.00;101566.03;4884134;29;20194;-69
2024/03/18 08:17:46;;;;;;;0.80;0.60;;;;;;;3.73;59.96;101559.84;4883793;29;20197;-70
2024/03/18 08:20:14;;;;;;;1.10;0.70;;;;;;;3.84;60.66;101562.38;4888501;29;20225;-69
2024/03/18 08:22:42;;;;;;;1.00;0.50;;;;;;;3.97;58.80;101566.59;4875640;29;20247;-69
2024/03/18 08:25:11;;;;;;;0.93;0.75;;;;;;;3.89;58.69;101565.47;4884589;29;20285;-69
2024/03/18 08:27:38;;;;;;;0.90;0.70;;;;;;;4.01;58.35;101562.66;4884001;29;20201;-68
2024/03/18 08:30:08;;;;;;;0.80;0.60;;;;;;;3.97;57.34;101558.56;4886524;29;20217;-69
2024/03/18 08:32:35;;;;;;;0.93;0.70;;;;;;;3.86;58.11;101567.59;4881840;29;20219;-70
2024/03/18 08:35:07;;;;;;;0.80;0.60;;;;;;;3.97;56.94;101561.25;4883373;29;20190;-70
2024/03/18 08:41:18;;;;;;;0.90;0.60;;;;;;;4.05;56.34;101556.00;4897135;29;20194;-68
2024/03/18 08:43:46;;;;;;;0.80;0.50;;;;;;;4.36;56.18;101554.78;4888709;29;20198;-69
2024/03/18 08:46:13;;;;;;;1.50;0.70;;;;;;;4.56;55.79;101559.09;4882541;29;20186;-70
2024/03/18 08:48:42;;;;;;;1.85;0.90;;;;;;;4.35;55.79;101555.81;4886804;29;20221;-68
2024/03/18 08:51:12;;;;;;;1.42;0.70;;;;;;;4.25;55.62;101554.97;4890869;29;20217;-69
2024/03/18 08:53:43;;;;;;;0.80;0.50;;;;;;;4.34;56.14;101554.94;4883230;29;20217;-70
2024/03/18 08:56:11;;;;;;;1.10;0.70;;;;;;;4.32;55.21;101548.03;4884894;29;20202;-69
2024/03/18 08:58:39;;;;;;;0.90;0.60;;;;;;;4.65;55.29;101552.84;4883085;29;20199;-69
2024/03/18 09:01:08;;;;;;;0.80;0.50;;;;;;;4.52;54.93;101541.63;4888046;29;20193;-68
2024/03/18 09:03:37;;;;;;;0.80;0.50;;;;;;;4.42;55.44;101548.84;4884405;29;20181;-71
2024/03/18 09:06:06;;;;;;;0.80;0.60;;;;;;;4.31;55.52;101544.50;4885464;29;20194;-70
2024/03/18 09:08:37;;;;;;;0.80;0.50;;;;;;;4.64;55.48;101537.78;4887156;29;20245;-70
2024/03/18 09:11:06;;;;;;;0.80;0.50;;;;;;;4.90;54.47;101547.78;4885987;29;20202;-70
2024/03/18 09:13:35;;;;;;;1.38;0.68;;;;;;;4.77;54.00;101543.63;4882604;29;20202;-70
2024/03/18 09:16:05;;;;;;;0.80;0.60;;;;;;;4.75;54.23;101542.06;4866798;29;20199;-70
2024/03/18 09:18:33;;;;;;;1.02;0.73;;;;;;;4.98;53.85;101550.59;4883385;29;20198;-71
2024/03/18 09:21:02;;;;;;;0.90;0.60;;;;;;;4.82;53.28;101535.13;4887990;29;20237;-69
2024/03/18 09:23:30;;;;;;;1.42;0.60;;;;;;;4.95;53.82;101540.13;4888136;29;20292;-69
2024/03/18 09:25:59;;;;;;;0.80;0.50;;;;;;;5.23;53.16;101531.91;4889402;29;20202;-70
2024/03/18 09:32:52;;;;;;;0.80;0.50;;;;;;;5.61;51.47;101535.31;4898120;29;20713;-69
2024/03/18 09:35:22;;;;;;;0.80;0.50;;;;;;;5.45;52.52;101535.97;4884086;29;20671;-68
2024/03/18 09:37:50;;;;;;;0.80;0.50;;;;;;;5.79;51.62;101532.59;4870725;29;20238;-68
2024/03/18 09:40:18;;;;;;;1.00;0.70;;;;;;;6.06;51.08;101530.63;4881590;29;20725;-68
2024/03/18 09:42:48;;;;;;;0.80;0.60;;;;;;;6.21;50.73;101528.22;4887090;29;20186;-69
2024/03/18 09:45:17;;;;;;;0.85;0.60;;;;;;;6.15;50.75;101523.47;4883137;29;20189;-68
2024/03/18 09:47:46;;;;;;;0.80;0.60;;;;;;;6.21;50.61;101525.53;4882344;29;20554;-68
2024/03/18 09:50:17;;;;;;;0.90;0.65;;;;;;;6.28;49.50;101523.06;4871522;29;20221;-69
2024/03/18 09:52:46;;;;;;;1.13;0.90;;;;;;;6.23;49.80;101515.47;4879370;29;20281;-68
2024/03/18 09:55:22;;;;;;;0.90;0.60;;;;;;;6.31;50.01;101511.97;4883285;29;20663;-68
2024/03/18 09:57:52;;;;;;;1.00;0.60;;;;;;;6.36;49.46;101515.03;4883135;29;20182;-69
2024/03/18 10:00:21;;;;;;;0.95;0.60;;;;;;;6.32;50.31;101514.50;4883359;29;20228;-69
2024/03/18 10:02:49;;;;;;;0.80;0.55;;;;;;;6.16;50.18;101514.41;4886083;29;20658;-70
2024/03/18 10:05:18;;;;;;;1.00;0.60;;;;;;;5.85;51.20;101510.47;4881994;29;20750;-67
2024/03/18 10:07:46;;;;;;;1.08;0.65;;;;;;;5.91;51.82;101504.50;4879303;29;20191;-69
2024/03/18 10:10:20;;;;;;;1.00;0.60;;;;;;;6.17;50.94;101504.50;4880208;29;20218;-69
2024/03/18 10:12:49;;;;;;;1.55;0.80;;;;;;;6.23;50.68;101510.09;4877523;29;20250;-69
2024/03/18 10:15:18;;;;;;;0.90;0.57;;;;;;;5.98;50.51;101505.56;4889116;29;20192;-69
2024/03/18 10:17:46;;;;;;;0.80;0.50;;;;;;;5.96;50.71;101513.78;4881358;29;20197;-68
2024/03/18 10:20:19;;;;;;;0.80;0.60;;;;;;;5.98;50.93;101500.19;4881757;29;20214;-69
2024/03/18 10:22:48;;;;;;;0.90;0.65;;;;;;;6.11;50.93;101497.91;4880417;29;20190;-68
2024/03/18 10:25:21;;;;;;;1.55;0.85;;;;;;;6.32;50.13;101509.13;4882264;29;20194;-68
2024/03/18 10:27:49;;;;;;;7.13;1.08;;;;;;;6.28;50.68;101491.66;4888982;29;20187;-69
2024/03/18 10:30:18;;;;;;;0.80;0.60;;;;;;;6.66;49.65;101494.84;4924706;23;20223;-80
2024/03/18 10:32:47;;;;;;;0.80;0.50;;;;;;;6.41;49.48;101501.94;4915178;29;20218;-81
2024/03/18 10:35:20;;;;;;;1.40;0.82;;;;;;;6.34;50.20;101496.38;4904728;29;20187;-80
2024/03/18 10:37:56;;;;;;;0.90;0.63;;;;;;;6.18;49.73;101493.59;4914254;29;20190;-79
2024/03/18 10:40:34;;;;;;;0.80;0.60;;;;;;;6.24;50.63;101490.28;4905806;29;20212;-80
2024/03/18 10:43:04;;;;;;;1.17;1.08;;;;;;;6.53;49.60;101490.75;4909245;29;20319;-80
2024/03/18 10:45:38;;;;;;;1.98;1.58;;;;;;;6.75;47.90;101499.25;4919861;29;20190;-80
2024/03/18 10:48:13;;;;;;;0.80;0.50;;;;;;;6.75;48.26;101493.88;4914355;29;20560;-79
2024/03/18 10:50:42;;;;;;;1.20;0.75;;;;;;;6.75;48.15;101494.72;4913845;29;20213;-78
2024/03/18 10:53:16;;;;;;;0.90;0.75;;;;;;;6.61;48.45;101502.56;4890495;29;20238;-80
2024/03/18 10:55:48;;;;;;;1.10;0.80;;;;;;;6.74;48.57;101497.56;4891272;29;20288;-80
2024/03/18 11:05:45;;;;;;;0.95;0.70;;;;;;;6.64;48.46;101496.84;4893623;29;20217;-81
2024/03/18 11:08:20;;;;;;;3.55;1.05;;;;;;;6.91;48.37;101485.84;4881005;29;20241;-81
2024/03/18 11:10:50;;;;;;;2.88;0.70;;;;;;;7.00;48.22;101479.47;4892289;29;20213;-80
2024/03/18 11:14:24;;;;;;;2.17;1.02;;;;;;;6.95;47.71;101479.13;4908663;29;20290;-81
2024/03/18 11:17:07;;;;;;;0.95;0.65;;;;;;;7.05;47.68;101479.00;4877141;29;20198;-81
2024/03/18 11:19:40;;;;;;;1.65;0.60;;;;;;;7.25;47.34;101475.84;4897485;29;20276;-81
2024/03/18 11:22:12;;;;;;;0.80;0.50;;;;;;;7.22;46.57;101478.84;4910957;29;20202;-80
2024/03/18 11:24:42;;;;;;;0.80;0.50;;;;;;;6.82;47.87;101478.78;4900229;29;20214;-81
2024/03/18 11:27:11;;;;;;;0.80;0.60;;;;;;;6.82;47.97;101471.53;4906428;29;20273;-80
2024/03/18 11:29:40;;;;;;;1.13;0.88;;;;;;;7.19;47.26;101468.41;4902296;29;20846;-80
2024/03/18 11:32:16;;;;;;;2.45;1.00;;;;;;;7.00;47.08;101466.03;4900768;29;20764;-79
2024/03/18 11:34:44;;;;;;;1.10;0.95;;;;;;;7.08;46.99;101466.03;4886585;29;20213;-81
2024/03/18 11:37:17;;;;;;;0.80;0.55;;;;;;;7.00;46.55;101466.03;4885317;29;20187;-80
2024/03/18 11:39:46;;;;;;;0.80;0.60;;;;;;;7.11;46.61;101463.03;4895049;29;20608;-77
2024/03/18 11:42:17;;;;;;;0.98;0.88;;;;;;;7.18;46.59;101460.50;4905264;29;20178;-80
2024/03/18 11:44:49;;;;;;;0.80;0.50;;;;;;;7.30;46.76;101451.09;4916538;29;20225;-79
2024/03/18 11:47:17;;;;;;;1.15;0.65;;;;;;;7.70;45.79;101452.91;4918028;29;20186;-81
2024/03/18 11:49:47;;;;;;;0.80;0.50;;;;;;;7.95;45.87;101456.44;4912889;29;20277;-80
2024/03/18 11:52:18;;;;;;;1.17;0.75;;;;;;;7.70;45.99;101450.22;4924985;29;20348;-80
2024/03/18 11:54:46;;;;;;;2.45;0.60;;;;;;;7.53;46.47;101451.25;4907013;29;20241;-82
2024/03/18 11:57:14;;;;;;;1.27;0.93;;;;;;;7.61;46.15;101445.88;4899622;29;20215;-80
2024/03/18 11:59:54;;;;;;;0.80;0.50;;;;;;;7.77;45.89;101446.69;4908152;29;20217;-82
2024/03/18 12:02:31;;;;;;;0.80;0.60;;;;;;;8.12;45.21;101440.06;4908128;29;20253;-82
2024/03/18 12:05:13;;;;;;;1.38;0.93;;;;;;;8.35;44.61;101439.34;4898029;29;20213;-83
2024/03/18 12:07:51;;;;;;;1.00;0.60;;;;;;;8.49;44.08;101444.00;4908983;29;20461;-80
2024/03/18 12:10:22;;;;;;;1.45;0.90;;;;;;;8.52;43.66;101430.19;4914050;29;20197;-81